createdAt,value
2024-01-11T00:00:07.897Z,36.17
2024-01-11T00:00:40.288Z,37.67
2024-01-11T00:01:12.442Z,36.53
2024-01-11T00:01:46.994Z,35.27
2024-01-11T00:02:19.404Z,34.10
2024-01-11T00:02:51.540Z,34.40
2024-01-11T00:03:23.550Z,34.60
2024-01-11T00:03:55.556Z,34.87
2024-01-11T00:04:27.585Z,34.80
2024-01-11T00:04:59.777Z,34.77
2024-01-11T00:05:31.903Z,35.33
2024-01-11T00:06:04.328Z,34.90
2024-01-11T00:06:41.938Z,35.40
2024-01-11T00:07:14.159Z,36.53
2024-01-11T00:07:46.382Z,38.53
2024-01-11T00:08:18.436Z,37.53
2024-01-11T00:08:50.493Z,38.57
2024-01-11T00:09:23.858Z,36.83
2024-01-11T00:09:55.964Z,36.37
2024-01-11T00:10:28.122Z,36.53
2024-01-11T00:11:00.302Z,38.10
2024-01-11T00:11:32.399Z,38.23
2024-01-11T00:12:04.789Z,38.57
2024-01-11T00:12:36.930Z,36.90
2024-01-11T00:13:09.031Z,35.50
2024-01-11T00:13:41.059Z,37.40
2024-01-11T00:14:13.230Z,39.63
2024-01-11T00:14:45.331Z,39.40
2024-01-11T00:15:17.500Z,37.57
2024-01-11T00:15:49.603Z,37.43
2024-01-11T00:16:21.659Z,37.30
2024-01-11T00:16:53.738Z,38.73
2024-01-11T00:17:26.014Z,38.97
2024-01-11T00:17:58.282Z,40.07
2024-01-11T00:18:30.558Z,39.00
2024-01-11T00:19:02.828Z,40.23
2024-01-11T00:19:34.915Z,39.63
2024-01-11T00:20:08.525Z,39.23
2024-01-11T00:20:40.844Z,38.73
2024-01-11T00:21:12.954Z,37.70
2024-01-11T00:21:45.009Z,38.53
2024-01-11T00:22:17.332Z,37.90
2024-01-11T00:22:49.579Z,37.50
2024-01-11T00:23:21.683Z,38.33
2024-01-11T00:23:53.895Z,38.63
2024-01-11T00:24:27.600Z,39.23
2024-01-11T00:25:00.073Z,39.17
2024-01-11T00:25:32.127Z,38.07
2024-01-11T00:26:04.341Z,37.47
2024-01-11T00:26:36.439Z,37.33
2024-01-11T00:27:08.508Z,36.40
2024-01-11T00:27:40.749Z,37.03
2024-01-11T00:28:12.868Z,36.20
2024-01-11T00:28:45.051Z,36.27
2024-01-11T00:29:17.102Z,36.63
2024-01-11T00:29:49.345Z,37.07
2024-01-11T00:30:21.466Z,36.27
2024-01-11T00:30:53.580Z,36.43
2024-01-11T00:31:25.622Z,36.23
2024-01-11T00:31:57.718Z,36.43
2024-01-11T00:32:29.994Z,36.23
2024-01-11T00:33:04.159Z,35.40
2024-01-11T00:33:36.466Z,35.63
2024-01-11T00:34:08.684Z,37.53
2024-01-11T00:34:40.770Z,38.40
2024-01-11T00:35:12.894Z,38.47
2024-01-11T00:35:45.214Z,37.40
2024-01-11T00:36:19.256Z,38.23
2024-01-11T00:36:51.256Z,39.17
2024-01-11T00:37:23.246Z,39.00
2024-01-11T00:37:55.340Z,37.93
2024-01-11T00:38:27.460Z,38.33
2024-01-11T00:38:59.665Z,38.70
2024-01-11T00:39:33.256Z,40.03
2024-01-11T00:40:06.542Z,40.80
2024-01-11T00:40:38.656Z,39.27
2024-01-11T00:41:10.724Z,39.53
2024-01-11T00:41:42.861Z,40.13
2024-01-11T00:42:14.891Z,40.60
2024-01-11T00:42:47.011Z,41.27
2024-01-11T00:43:19.036Z,41.53
2024-01-11T00:43:51.410Z,42.33
2024-01-11T00:44:23.577Z,40.27
2024-01-11T00:44:55.654Z,41.33
2024-01-11T00:45:27.642Z,43.20
2024-01-11T00:45:59.696Z,44.80
2024-01-11T00:46:31.828Z,42.73
2024-01-11T00:47:04.085Z,41.47
2024-01-11T00:47:36.214Z,42.43
2024-01-11T00:48:08.489Z,41.23
2024-01-11T00:48:40.761Z,43.07
2024-01-11T00:49:12.959Z,42.67
2024-01-11T00:49:45.308Z,41.67
2024-01-11T00:50:17.665Z,43.23
2024-01-11T00:50:49.733Z,42.90
2024-01-11T00:51:21.794Z,43.13
2024-01-11T00:51:53.901Z,43.67
2024-01-11T00:52:26.056Z,42.43
2024-01-11T00:52:58.297Z,41.53
2024-01-11T00:53:30.568Z,42.73
2024-01-11T00:54:02.729Z,43.07
2024-01-11T00:54:36.786Z,43.83
2024-01-11T00:55:09.085Z,43.97
2024-01-11T00:55:41.257Z,41.67
2024-01-11T00:56:20.227Z,41.40
2024-01-11T00:56:52.276Z,41.77
2024-01-11T00:57:24.479Z,41.73
2024-01-11T00:57:56.594Z,42.23
2024-01-11T00:58:28.942Z,42.73
2024-01-11T00:59:01.758Z,41.63
2024-01-11T00:59:33.997Z,41.33
2024-01-11T01:00:07.705Z,41.27
2024-01-11T01:00:39.801Z,42.67
2024-01-11T01:01:12.224Z,40.97
2024-01-11T01:01:48.518Z,39.40
2024-01-11T01:02:21.441Z,40.53
2024-01-11T01:02:54.557Z,41.63
2024-01-11T01:03:26.581Z,42.13
2024-01-11T01:03:59.677Z,42.80
2024-01-11T01:04:31.748Z,41.20
2024-01-11T01:05:04.707Z,39.93
2024-01-11T01:05:36.873Z,39.90
2024-01-11T01:06:09.036Z,41.23
2024-01-11T01:06:42.847Z,41.80
2024-01-11T01:07:15.040Z,42.07
2024-01-11T01:07:47.244Z,41.23
2024-01-11T01:08:19.508Z,39.67
2024-01-11T01:08:51.628Z,40.33
2024-01-11T01:09:23.694Z,41.93
2024-01-11T01:09:57.140Z,41.60
2024-01-11T01:10:29.267Z,42.20
2024-01-11T01:11:01.389Z,43.13
2024-01-11T01:11:33.609Z,41.37
2024-01-11T01:12:06.427Z,41.30
2024-01-11T01:12:38.508Z,42.33
2024-01-11T01:13:10.700Z,42.03
2024-01-11T01:13:42.713Z,41.63
2024-01-11T01:14:14.730Z,42.40
2024-01-11T01:14:46.908Z,42.83
2024-01-11T01:15:18.935Z,42.60
2024-01-11T01:15:51.108Z,42.87
2024-01-11T01:16:23.126Z,44.33
2024-01-11T01:16:55.164Z,44.07
2024-01-11T01:17:27.281Z,43.87
2024-01-11T01:17:59.629Z,43.67
2024-01-11T01:18:32.053Z,43.33
2024-01-11T01:19:04.195Z,43.30
2024-01-11T01:19:36.580Z,41.73
2024-01-11T01:20:09.690Z,41.03
2024-01-11T01:20:41.934Z,41.43
2024-01-11T01:21:14.191Z,41.87
2024-01-11T01:21:46.230Z,41.57
2024-01-11T01:22:18.339Z,42.87
2024-01-11T01:22:50.672Z,42.03
2024-01-11T01:23:22.925Z,41.80
2024-01-11T01:23:55.090Z,42.67
2024-01-11T01:24:27.374Z,42.00
2024-01-11T01:25:00.923Z,42.07
2024-01-11T01:25:33.023Z,41.53
2024-01-11T01:26:07.379Z,41.33
2024-01-11T01:26:39.895Z,42.13
2024-01-11T01:27:12.028Z,42.70
2024-01-11T01:27:44.077Z,44.40
2024-01-11T01:28:16.166Z,43.43
2024-01-11T01:28:48.230Z,43.70
2024-01-11T01:29:20.399Z,42.03
2024-01-11T01:29:52.425Z,43.10
2024-01-11T01:30:24.541Z,43.33
2024-01-11T01:30:56.689Z,41.90
2024-01-11T01:31:28.698Z,42.47
2024-01-11T01:32:00.942Z,42.73
2024-01-11T01:32:33.141Z,43.13
2024-01-11T01:33:05.684Z,43.30
2024-01-11T01:33:38.029Z,42.97
2024-01-11T01:34:10.263Z,42.20
2024-01-11T01:34:42.917Z,42.00
2024-01-11T01:35:15.975Z,41.93
2024-01-11T01:35:48.033Z,44.43
2024-01-11T01:36:20.067Z,43.57
2024-01-11T01:36:52.121Z,43.57
2024-01-11T01:37:24.234Z,44.47
2024-01-11T01:37:57.026Z,44.37
2024-01-11T01:38:29.152Z,43.90
2024-01-11T01:39:01.319Z,43.83
2024-01-11T01:39:33.556Z,43.50
2024-01-11T01:40:08.468Z,43.37
2024-01-11T01:40:40.538Z,43.43
2024-01-11T01:41:12.614Z,43.40
2024-01-11T01:41:44.747Z,44.13
2024-01-11T01:42:17.103Z,44.93
2024-01-11T01:42:49.635Z,45.73
2024-01-11T01:43:21.732Z,45.93
2024-01-11T01:43:53.950Z,45.07
2024-01-11T01:44:26.107Z,46.73
2024-01-11T01:44:58.249Z,46.63
2024-01-11T01:45:30.369Z,45.37
2024-01-11T01:46:03.194Z,44.63
2024-01-11T01:46:36.121Z,44.27
2024-01-11T01:47:09.973Z,46.10
2024-01-11T01:47:43.235Z,45.30
2024-01-11T01:48:15.680Z,44.23
2024-01-11T01:48:48.129Z,44.13
2024-01-11T01:49:20.460Z,46.00
2024-01-11T01:49:53.937Z,46.03
2024-01-11T01:50:27.530Z,44.50
2024-01-11T01:50:59.863Z,45.17
2024-01-11T01:51:33.573Z,46.13
2024-01-11T01:52:08.695Z,46.37
2024-01-11T01:52:44.394Z,45.23
2024-01-11T01:53:16.680Z,44.67
2024-01-11T01:53:52.173Z,44.83
2024-01-11T01:54:25.562Z,44.67
2024-01-11T01:54:59.813Z,46.33
2024-01-11T01:55:33.696Z,45.20
2024-01-11T01:56:07.325Z,45.80
2024-01-11T01:56:39.783Z,45.53
2024-01-11T01:57:14.081Z,45.10
2024-01-11T01:57:48.969Z,43.87
2024-01-11T01:58:22.626Z,44.53
2024-01-11T01:58:56.036Z,45.00
2024-01-11T01:59:30.607Z,44.27
2024-01-11T02:00:03.674Z,43.83
2024-01-11T02:00:35.902Z,44.17
2024-01-11T02:01:11.914Z,42.10
2024-01-11T02:01:44.579Z,43.93
2024-01-11T02:02:17.487Z,42.47
2024-01-11T02:02:52.205Z,41.90
2024-01-11T02:03:28.932Z,43.13
2024-01-11T02:04:01.398Z,42.30
2024-01-11T02:04:33.716Z,41.40
2024-01-11T02:05:07.630Z,40.67
2024-01-11T02:05:40.209Z,42.40
2024-01-11T02:06:12.765Z,43.77
2024-01-11T02:06:47.628Z,43.30
2024-01-11T02:07:20.347Z,43.23
2024-01-11T02:07:52.825Z,42.10
2024-01-11T02:08:26.948Z,41.27
2024-01-11T02:09:01.624Z,40.17
2024-01-11T02:09:35.013Z,41.23
2024-01-11T02:10:08.831Z,40.23
2024-01-11T02:10:43.167Z,39.90
2024-01-11T02:11:16.351Z,39.37
2024-01-11T02:11:49.384Z,40.70
2024-01-11T02:12:21.876Z,40.43
2024-01-11T02:12:54.185Z,39.20
2024-01-11T02:13:26.429Z,41.20
2024-01-11T02:13:59.469Z,39.20
2024-01-11T02:14:32.425Z,38.97
2024-01-11T02:15:05.678Z,38.13
2024-01-11T02:15:37.739Z,38.67
2024-01-11T02:16:09.952Z,38.70
2024-01-11T02:16:42.148Z,39.77
2024-01-11T02:17:14.277Z,41.00
2024-01-11T02:17:46.883Z,40.83
2024-01-11T02:18:19.458Z,39.20
2024-01-11T02:18:51.688Z,39.37
2024-01-11T02:19:23.988Z,40.93
2024-01-11T02:19:56.111Z,40.53
2024-01-11T02:20:28.341Z,37.47
2024-01-11T02:21:01.337Z,40.07
2024-01-11T02:21:35.406Z,41.83
2024-01-11T02:22:16.510Z,43.03
2024-01-11T02:22:54.319Z,42.30
2024-01-11T02:23:28.410Z,41.87
2024-01-11T02:24:07.673Z,41.10
2024-01-11T02:24:39.798Z,39.13
2024-01-11T02:25:12.084Z,38.43
2024-01-11T02:25:44.266Z,38.63
2024-01-11T02:26:16.414Z,40.43
2024-01-11T02:26:59.591Z,40.50
2024-01-11T02:27:31.800Z,38.73
2024-01-11T02:28:04.496Z,37.37
2024-01-11T02:28:36.773Z,39.17
2024-01-11T02:29:08.822Z,40.47
2024-01-11T02:29:41.045Z,42.20
2024-01-11T02:30:13.807Z,40.20
2024-01-11T02:30:45.971Z,38.40
2024-01-11T02:31:18.132Z,39.70
2024-01-11T02:31:50.562Z,39.87
2024-01-11T02:32:23.524Z,41.57
2024-01-11T02:32:56.589Z,43.97
2024-01-11T02:33:29.077Z,42.00
2024-01-11T02:34:01.577Z,40.43
2024-01-11T02:34:35.425Z,38.97
2024-01-11T02:35:08.605Z,39.03
2024-01-11T02:35:43.076Z,39.00
2024-01-11T02:36:17.967Z,41.43
2024-01-11T02:36:50.850Z,41.13
2024-01-11T02:37:28.715Z,40.80
2024-01-11T02:38:01.885Z,40.17
2024-01-11T02:38:35.749Z,39.67
2024-01-11T02:39:09.199Z,38.77
2024-01-11T02:39:42.225Z,37.60
2024-01-11T02:40:15.299Z,38.17
2024-01-11T02:40:47.790Z,34.97
2024-01-11T02:41:20.354Z,35.70
2024-01-11T02:41:54.435Z,35.47
2024-01-11T02:42:26.477Z,34.97
2024-01-11T02:42:58.538Z,32.13
2024-01-11T02:43:30.578Z,31.90
2024-01-11T02:44:02.675Z,31.30
2024-01-11T02:44:35.045Z,30.00
2024-01-11T02:45:08.232Z,29.70
2024-01-11T02:45:40.360Z,28.63
2024-01-11T02:46:12.757Z,28.80
2024-01-11T02:46:44.808Z,27.73
2024-01-11T02:47:16.845Z,27.10
2024-01-11T02:47:49.162Z,27.83
2024-01-11T02:48:21.428Z,28.07
2024-01-11T02:48:53.866Z,27.77
2024-01-11T02:49:26.006Z,27.77
2024-01-11T02:49:58.155Z,28.90
2024-01-11T02:50:30.245Z,28.60
2024-01-11T02:51:02.291Z,26.87
2024-01-11T02:51:34.454Z,26.77
2024-01-11T02:52:06.679Z,27.30
2024-01-11T02:52:38.671Z,27.77
2024-01-11T02:53:10.743Z,28.47
2024-01-11T02:53:42.774Z,28.17
2024-01-11T02:54:16.244Z,29.03
2024-01-11T02:54:50.321Z,29.50
2024-01-11T02:55:22.308Z,29.20
2024-01-11T02:55:54.395Z,29.97
2024-01-11T02:56:26.516Z,28.80
2024-01-11T02:56:58.541Z,27.83
2024-01-11T02:57:30.632Z,28.43
2024-01-11T02:58:02.667Z,29.07
2024-01-11T02:58:34.696Z,29.03
2024-01-11T02:59:07.004Z,27.73
2024-01-11T02:59:39.016Z,28.23
2024-01-11T03:00:12.249Z,27.47
2024-01-11T03:00:44.337Z,27.03
2024-01-11T03:01:16.620Z,28.07
2024-01-11T03:01:48.818Z,28.40
2024-01-11T03:02:21.118Z,27.43
2024-01-11T03:02:53.147Z,25.30
2024-01-11T03:03:25.294Z,25.40
2024-01-11T03:03:58.282Z,26.23
2024-01-11T03:04:30.452Z,25.80
2024-01-11T03:05:02.587Z,25.33
2024-01-11T03:05:34.866Z,25.27
2024-01-11T03:06:07.362Z,24.50
2024-01-11T03:06:39.527Z,24.97
2024-01-11T03:07:11.682Z,24.93
2024-01-11T03:07:43.674Z,24.27
2024-01-11T03:08:15.735Z,25.03
2024-01-11T03:08:47.770Z,25.57
2024-01-11T03:09:21.322Z,25.27
2024-01-11T03:09:53.426Z,26.60
2024-01-11T03:10:25.459Z,25.50
2024-01-11T03:10:57.522Z,25.03
2024-01-11T03:11:29.606Z,26.07
2024-01-11T03:12:01.784Z,25.33
2024-01-11T03:12:33.935Z,24.20
2024-01-11T03:13:06.994Z,24.30
2024-01-11T03:13:38.979Z,24.77
2024-01-11T03:14:11.073Z,24.13
2024-01-11T03:14:43.322Z,24.20
2024-01-11T03:15:15.720Z,23.60
2024-01-11T03:15:47.959Z,25.47
2024-01-11T03:16:20.012Z,24.77
2024-01-11T03:16:52.118Z,25.67
2024-01-11T03:17:24.423Z,25.23
2024-01-11T03:17:56.783Z,26.10
2024-01-11T03:18:29.000Z,25.43
2024-01-11T03:19:01.313Z,26.10
2024-01-11T03:19:33.397Z,27.00
2024-01-11T03:20:06.198Z,26.03
2024-01-11T03:20:38.412Z,25.07
2024-01-11T03:21:10.471Z,25.17
2024-01-11T03:21:43.503Z,26.67
2024-01-11T03:22:15.576Z,26.87
2024-01-11T03:22:47.630Z,27.80
2024-01-11T03:23:20.151Z,27.80
2024-01-11T03:23:52.356Z,28.90
2024-01-11T03:24:25.761Z,27.73
2024-01-11T03:24:57.834Z,27.57
2024-01-11T03:25:30.706Z,28.47
2024-01-11T03:26:02.843Z,27.57
2024-01-11T03:26:35.586Z,28.37
2024-01-11T03:27:07.762Z,28.60
2024-01-11T03:27:39.813Z,28.30
2024-01-11T03:28:11.873Z,27.03
2024-01-11T03:28:44.041Z,27.37
2024-01-11T03:29:16.270Z,26.77
2024-01-11T03:29:51.219Z,27.73
2024-01-11T03:30:23.254Z,27.23
2024-01-11T03:30:55.364Z,26.70
2024-01-11T03:31:27.472Z,27.27
2024-01-11T03:31:59.669Z,26.70
2024-01-11T03:32:31.889Z,26.73
2024-01-11T03:33:04.471Z,27.00
2024-01-11T03:33:36.809Z,27.00
2024-01-11T03:34:09.032Z,27.47
2024-01-11T03:34:41.134Z,27.60
2024-01-11T03:35:13.348Z,26.57
2024-01-11T03:35:45.470Z,26.97
2024-01-11T03:36:17.647Z,28.27
2024-01-11T03:36:49.741Z,26.97
2024-01-11T03:37:21.832Z,25.93
2024-01-11T03:37:54.084Z,25.57
2024-01-11T03:38:26.305Z,26.37
2024-01-11T03:38:58.620Z,27.73
2024-01-11T03:39:32.039Z,27.33
2024-01-11T03:40:05.212Z,27.80
2024-01-11T03:40:37.299Z,27.63
2024-01-11T03:41:10.321Z,26.87
2024-01-11T03:41:44.923Z,26.70
2024-01-11T03:42:16.947Z,26.70
2024-01-11T03:42:49.178Z,26.67
2024-01-11T03:43:21.207Z,25.90
2024-01-11T03:43:53.263Z,25.70
2024-01-11T03:44:25.359Z,25.13
2024-01-11T03:44:57.603Z,25.17
2024-01-11T03:45:29.681Z,24.67
2024-01-11T03:46:01.858Z,23.97
2024-01-11T03:46:33.853Z,25.20
2024-01-11T03:47:06.067Z,23.70
2024-01-11T03:47:38.294Z,25.43
2024-01-11T03:48:10.655Z,26.97
2024-01-11T03:48:42.879Z,26.40
2024-01-11T03:49:15.031Z,25.30
2024-01-11T03:49:47.095Z,25.03
2024-01-11T03:50:19.175Z,25.10
2024-01-11T03:50:51.323Z,24.33
2024-01-11T03:51:23.995Z,24.63
2024-01-11T03:51:56.100Z,24.23
2024-01-11T03:52:28.231Z,24.67
2024-01-11T03:53:00.364Z,25.97
2024-01-11T03:53:36.036Z,25.93
2024-01-11T03:54:08.223Z,25.53
2024-01-11T03:54:41.658Z,26.53
2024-01-11T03:55:13.745Z,26.67
2024-01-11T03:55:45.842Z,26.60
2024-01-11T03:56:17.942Z,24.73
2024-01-11T03:56:50.126Z,24.90
2024-01-11T03:57:22.976Z,25.90
2024-01-11T03:57:54.966Z,25.90
2024-01-11T03:58:27.165Z,26.40
2024-01-11T03:58:59.207Z,26.30
2024-01-11T03:59:31.499Z,26.60
2024-01-11T04:00:04.012Z,25.60
2024-01-11T04:00:36.053Z,25.53
2024-01-11T04:01:08.378Z,25.33
2024-01-11T04:01:41.586Z,25.83
2024-01-11T04:02:13.841Z,25.13
2024-01-11T04:02:45.899Z,25.33
2024-01-11T04:03:18.024Z,25.13
2024-01-11T04:03:50.106Z,24.97
2024-01-11T04:04:22.323Z,24.87
2024-01-11T04:04:54.613Z,24.60
2024-01-11T04:05:26.715Z,26.50
2024-01-11T04:05:58.899Z,26.10
2024-01-11T04:06:30.981Z,25.20
2024-01-11T04:07:03.070Z,26.83
2024-01-11T04:07:35.234Z,26.33
2024-01-11T04:08:08.136Z,26.40
2024-01-11T04:08:40.378Z,25.27
2024-01-11T04:09:12.552Z,25.80
2024-01-11T04:09:46.003Z,26.63
2024-01-11T04:10:18.971Z,27.47
2024-01-11T04:10:50.956Z,27.50
2024-01-11T04:11:23.006Z,26.93
2024-01-11T04:11:55.098Z,27.17
2024-01-11T04:12:27.126Z,26.17
2024-01-11T04:12:59.347Z,25.87
2024-01-11T04:13:31.365Z,26.87
2024-01-11T04:14:03.697Z,27.53
2024-01-11T04:14:39.364Z,26.83
2024-01-11T04:15:13.414Z,26.60
2024-01-11T04:15:45.707Z,26.57
2024-01-11T04:16:17.733Z,27.10
2024-01-11T04:16:49.813Z,27.70
2024-01-11T04:17:21.953Z,27.40
2024-01-11T04:17:54.121Z,29.27
2024-01-11T04:18:26.426Z,29.37
2024-01-11T04:18:58.572Z,30.87
2024-01-11T04:19:30.716Z,32.53
2024-01-11T04:20:02.994Z,32.00
2024-01-11T04:20:35.497Z,33.03
2024-01-11T04:21:07.756Z,33.67
2024-01-11T04:21:39.788Z,34.60
2024-01-11T04:22:11.828Z,35.77
2024-01-11T04:22:43.867Z,36.37
2024-01-11T04:23:15.972Z,36.40
2024-01-11T04:23:48.557Z,35.67
2024-01-11T04:24:20.686Z,35.10
2024-01-11T04:24:54.106Z,36.37
2024-01-11T04:25:26.158Z,37.27
2024-01-11T04:25:58.406Z,36.30
2024-01-11T04:26:30.680Z,35.70
2024-01-11T04:27:02.842Z,35.80
2024-01-11T04:27:34.825Z,37.13
2024-01-11T04:28:06.880Z,39.80
2024-01-11T04:28:38.912Z,40.03
2024-01-11T04:29:11.228Z,41.80
2024-01-11T04:29:43.341Z,44.80
2024-01-11T04:30:15.758Z,49.57
2024-01-11T04:30:47.905Z,54.00
2024-01-11T04:31:20.206Z,59.03
2024-01-11T04:31:52.407Z,61.43
2024-01-11T04:32:24.488Z,65.30
2024-01-11T04:32:56.766Z,64.20
2024-01-11T04:33:28.888Z,63.67
2024-01-11T04:34:01.344Z,64.77
2024-01-11T04:34:33.509Z,65.00
2024-01-11T04:35:06.551Z,65.30
2024-01-11T04:35:38.826Z,65.07
2024-01-11T04:36:11.558Z,62.93
2024-01-11T04:36:43.764Z,61.03
2024-01-11T04:37:15.854Z,60.63
2024-01-11T04:37:47.957Z,60.27
2024-01-11T04:38:20.086Z,61.30
2024-01-11T04:38:52.283Z,60.17
2024-01-11T04:39:24.514Z,58.07
2024-01-11T04:39:58.043Z,53.70
2024-01-11T04:40:30.169Z,51.63
2024-01-11T04:41:09.129Z,51.37
2024-01-11T04:41:41.455Z,50.03
2024-01-11T04:42:13.527Z,53.17
2024-01-11T04:42:45.583Z,57.33
2024-01-11T04:43:17.744Z,58.40
2024-01-11T04:43:49.750Z,55.33
2024-01-11T04:44:21.904Z,53.03
2024-01-11T04:44:53.963Z,51.10
2024-01-11T04:45:26.008Z,49.60
2024-01-11T04:45:57.981Z,49.97
2024-01-11T04:46:30.129Z,49.60
2024-01-11T04:47:02.370Z,46.50
2024-01-11T04:47:34.594Z,47.50
2024-01-11T04:48:08.049Z,47.33
2024-01-11T04:48:40.213Z,49.37
2024-01-11T04:49:12.494Z,48.33
2024-01-11T04:49:44.724Z,47.57
2024-01-11T04:50:18.212Z,47.30
2024-01-11T04:50:51.496Z,48.47
2024-01-11T04:51:23.709Z,49.70
2024-01-11T04:51:55.761Z,49.03
2024-01-11T04:52:28.145Z,49.63
2024-01-11T04:53:00.220Z,50.63
2024-01-11T04:53:32.244Z,52.07
2024-01-11T04:54:04.351Z,51.57
2024-01-11T04:54:36.326Z,51.53
2024-01-11T04:55:10.120Z,49.53
2024-01-11T04:55:42.417Z,47.53
2024-01-11T04:56:16.900Z,46.80
2024-01-11T04:56:49.098Z,44.97
2024-01-11T04:57:21.341Z,44.63
2024-01-11T04:57:53.554Z,45.23
2024-01-11T04:58:25.614Z,44.53
2024-01-11T04:58:57.747Z,43.13
2024-01-11T04:59:29.903Z,42.60
2024-01-11T05:00:03.830Z,42.40
2024-01-11T05:00:36.388Z,40.23
2024-01-11T05:01:12.546Z,41.37
2024-01-11T05:01:46.812Z,43.33
2024-01-11T05:02:18.896Z,42.13
2024-01-11T05:02:51.245Z,42.27
2024-01-11T05:03:23.396Z,45.07
2024-01-11T05:03:55.483Z,43.03
2024-01-11T05:04:27.566Z,44.90
2024-01-11T05:04:59.618Z,45.53
2024-01-11T05:05:31.773Z,43.77
2024-01-11T05:06:04.301Z,44.30
2024-01-11T05:06:36.387Z,43.20
2024-01-11T05:07:08.519Z,42.13
2024-01-11T05:07:40.645Z,44.03
2024-01-11T05:08:12.708Z,41.97
2024-01-11T05:08:45.183Z,40.63
2024-01-11T05:09:17.340Z,41.10
2024-01-11T05:09:49.437Z,41.17
2024-01-11T05:10:22.880Z,42.63
2024-01-11T05:10:55.009Z,43.67
2024-01-11T05:11:27.094Z,41.87
2024-01-11T05:11:59.397Z,41.40
2024-01-11T05:12:31.462Z,42.13
2024-01-11T05:13:03.826Z,42.73
2024-01-11T05:13:36.126Z,42.43
2024-01-11T05:14:08.321Z,41.23
2024-01-11T05:14:40.461Z,42.40
2024-01-11T05:15:12.623Z,44.83
2024-01-11T05:15:44.704Z,42.67
2024-01-11T05:16:21.199Z,44.07
2024-01-11T05:16:53.318Z,47.57
2024-01-11T05:17:27.419Z,48.60
2024-01-11T05:17:59.639Z,50.83
2024-01-11T05:18:34.617Z,50.57
2024-01-11T05:19:07.328Z,51.00
2024-01-11T05:19:39.653Z,51.13
2024-01-11T05:20:12.337Z,51.40
2024-01-11T05:20:44.677Z,49.33
2024-01-11T05:21:16.858Z,49.53
2024-01-11T05:21:48.915Z,52.17
2024-01-11T05:22:20.994Z,50.23
2024-01-11T05:22:53.059Z,52.10
2024-01-11T05:23:25.128Z,51.23
2024-01-11T05:23:57.316Z,53.10
2024-01-11T05:24:29.388Z,51.63
2024-01-11T05:25:01.494Z,51.93
2024-01-11T05:25:34.881Z,52.50
2024-01-11T05:26:07.000Z,56.27
2024-01-11T05:26:39.312Z,56.23
2024-01-11T05:27:11.494Z,53.20
2024-01-11T05:27:43.616Z,50.97
2024-01-11T05:28:15.646Z,49.30
2024-01-11T05:28:47.824Z,49.90
2024-01-11T05:29:19.897Z,50.80
2024-01-11T05:29:51.904Z,52.40
2024-01-11T05:30:25.766Z,51.60
2024-01-11T05:31:00.430Z,51.37
2024-01-11T05:31:32.860Z,52.33
2024-01-11T05:32:05.747Z,49.40
2024-01-11T05:32:38.010Z,47.37
2024-01-11T05:33:10.391Z,49.20
2024-01-11T05:33:43.478Z,48.40
2024-01-11T05:34:16.118Z,49.97
2024-01-11T05:34:48.595Z,50.60
2024-01-11T05:35:20.963Z,51.37
2024-01-11T05:35:53.096Z,49.43
2024-01-11T05:36:25.245Z,51.50
2024-01-11T05:36:59.111Z,51.80
2024-01-11T05:37:35.480Z,50.70
2024-01-11T05:38:07.571Z,52.80
2024-01-11T05:38:40.294Z,54.03
2024-01-11T05:39:12.519Z,51.57
2024-01-11T05:39:44.615Z,55.20
2024-01-11T05:40:16.790Z,57.20
2024-01-11T05:40:50.288Z,57.67
2024-01-11T05:41:22.392Z,58.97
2024-01-11T05:41:54.548Z,56.77
2024-01-11T05:42:26.600Z,58.47
2024-01-11T05:42:58.646Z,57.83
2024-01-11T05:43:30.959Z,56.80
2024-01-11T05:44:03.049Z,56.90
2024-01-11T05:44:35.291Z,55.23
2024-01-11T05:45:08.134Z,55.87
2024-01-11T05:45:47.504Z,56.90
2024-01-11T05:46:20.347Z,56.93
2024-01-11T05:46:52.371Z,55.53
2024-01-11T05:47:24.511Z,56.70
2024-01-11T05:47:56.654Z,56.13
2024-01-11T05:48:28.812Z,56.43
2024-01-11T05:49:01.005Z,58.30
2024-01-11T05:49:33.173Z,59.00
2024-01-11T05:50:06.084Z,59.13
2024-01-11T05:50:38.389Z,57.63
2024-01-11T05:51:10.621Z,57.17
2024-01-11T05:51:42.687Z,59.83
2024-01-11T05:52:14.837Z,59.30
2024-01-11T05:52:46.891Z,60.43
2024-01-11T05:53:18.984Z,61.23
2024-01-11T05:53:50.960Z,58.10
2024-01-11T05:54:22.972Z,60.10
2024-01-11T05:54:55.248Z,59.90
2024-01-11T05:55:27.346Z,59.83
2024-01-11T05:56:00.754Z,60.30
2024-01-11T05:56:32.780Z,60.87
2024-01-11T05:57:05.194Z,60.43
2024-01-11T05:57:37.233Z,59.90
2024-01-11T05:58:09.387Z,58.57
2024-01-11T05:58:41.671Z,58.47
2024-01-11T05:59:13.773Z,60.10
2024-01-11T05:59:45.851Z,75.23
2024-01-11T06:00:19.053Z,79.00
2024-01-11T06:00:51.153Z,75.93
2024-01-11T06:01:23.324Z,78.73
2024-01-11T06:01:55.389Z,89.60
2024-01-11T06:02:27.758Z,86.90
2024-01-11T06:02:59.757Z,83.37
2024-01-11T06:03:32.009Z,80.60
2024-01-11T06:04:04.306Z,89.13
2024-01-11T06:04:36.315Z,102.27
2024-01-11T06:05:09.788Z,120.50
2024-01-11T06:05:42.072Z,107.57
2024-01-11T06:06:14.248Z,100.13
2024-01-11T06:06:46.546Z,94.10
2024-01-11T06:07:18.578Z,90.90
2024-01-11T06:07:51.284Z,87.37
2024-01-11T06:08:23.374Z,81.20
2024-01-11T06:08:55.531Z,73.83
2024-01-11T06:09:27.699Z,74.20
2024-01-11T06:10:00.116Z,72.03
2024-01-11T06:10:32.405Z,68.77
2024-01-11T06:11:05.939Z,67.17
2024-01-11T06:11:38.028Z,68.00
2024-01-11T06:12:10.135Z,66.87
2024-01-11T06:12:42.161Z,68.80
2024-01-11T06:13:14.234Z,67.80
2024-01-11T06:13:46.416Z,64.43
2024-01-11T06:14:18.540Z,65.83
2024-01-11T06:14:50.658Z,66.80
2024-01-11T06:15:22.707Z,67.43
2024-01-11T06:15:54.980Z,67.63
2024-01-11T06:16:27.070Z,66.90
2024-01-11T06:16:59.198Z,68.93
2024-01-11T06:17:31.446Z,69.83
2024-01-11T06:18:04.171Z,69.83
2024-01-11T06:18:36.466Z,68.23
2024-01-11T06:19:08.596Z,70.20
2024-01-11T06:19:40.691Z,69.30
2024-01-11T06:20:13.122Z,68.07
2024-01-11T06:20:45.380Z,70.40
2024-01-11T06:21:17.542Z,69.70
2024-01-11T06:21:49.604Z,72.00
2024-01-11T06:22:21.681Z,69.60
2024-01-11T06:22:53.702Z,67.93
2024-01-11T06:23:26.969Z,67.37
2024-01-11T06:23:59.086Z,67.63
2024-01-11T06:24:31.198Z,68.47
2024-01-11T06:25:03.350Z,65.57
2024-01-11T06:25:35.469Z,64.97
2024-01-11T06:26:09.234Z,66.00
2024-01-11T06:26:41.432Z,67.00
2024-01-11T06:27:13.633Z,67.40
2024-01-11T06:27:46.071Z,66.60
2024-01-11T06:28:23.716Z,65.80
2024-01-11T06:28:55.919Z,67.23
2024-01-11T06:29:28.577Z,65.53
2024-01-11T06:30:00.701Z,67.90
2024-01-11T06:30:32.758Z,65.17
2024-01-11T06:31:05.485Z,65.57
2024-01-11T06:31:39.264Z,68.73
2024-01-11T06:32:11.350Z,69.10
2024-01-11T06:32:43.495Z,68.83
2024-01-11T06:33:15.946Z,68.73
2024-01-11T06:33:51.020Z,67.23
2024-01-11T06:34:23.614Z,70.77
2024-01-11T06:34:55.771Z,68.23
2024-01-11T06:35:27.907Z,69.10
2024-01-11T06:36:00.070Z,71.07
2024-01-11T06:36:32.102Z,68.27
2024-01-11T06:37:04.385Z,69.00
2024-01-11T06:37:36.592Z,70.20
2024-01-11T06:38:08.933Z,68.17
2024-01-11T06:38:41.219Z,68.37
2024-01-11T06:39:13.269Z,69.63
2024-01-11T06:39:45.310Z,70.97
2024-01-11T06:40:17.558Z,72.83
2024-01-11T06:40:49.615Z,69.57
2024-01-11T06:41:23.171Z,67.37
2024-01-11T06:41:55.175Z,66.77
2024-01-11T06:42:27.250Z,66.17
2024-01-11T06:42:59.295Z,66.27
2024-01-11T06:43:31.402Z,65.80
2024-01-11T06:44:03.579Z,66.00
2024-01-11T06:44:35.830Z,65.83
2024-01-11T06:45:09.176Z,65.03
2024-01-11T06:45:41.178Z,65.60
2024-01-11T06:46:13.207Z,63.87
2024-01-11T06:46:45.290Z,64.07
2024-01-11T06:47:17.325Z,64.47
2024-01-11T06:47:49.565Z,63.63
2024-01-11T06:48:21.782Z,64.57
2024-01-11T06:48:53.984Z,65.40
2024-01-11T06:49:26.175Z,66.87
2024-01-11T06:49:58.277Z,67.83
2024-01-11T06:50:30.562Z,65.37
2024-01-11T06:51:02.829Z,63.93
2024-01-11T06:51:35.239Z,65.13
2024-01-11T06:52:07.219Z,66.40
2024-01-11T06:52:39.694Z,66.23
2024-01-11T06:53:11.903Z,65.37
2024-01-11T06:53:44.139Z,66.87
2024-01-11T06:54:16.236Z,67.70
2024-01-11T06:54:48.569Z,68.93
2024-01-11T06:55:20.577Z,70.17
2024-01-11T06:55:52.689Z,68.20
2024-01-11T06:56:26.089Z,68.87
2024-01-11T06:56:58.218Z,67.63
2024-01-11T06:57:30.330Z,69.43
2024-01-11T06:58:02.763Z,70.07
2024-01-11T06:58:34.845Z,71.00
2024-01-11T06:59:06.931Z,68.97